Flight Track Log - Related Links

Times and Time Zones

All times are in EDT time to prevent confusion due to time zone crossing. See the C-GIWP flight status page for this flight to view local times or setup timezone preferences in your user account.

Time Position Orientation Groundspeed Altitude Reporting Facility
EDT Latitude Longitude Course Direction KTS MPH feet Rate Location/Type
Sun 01:35:53 PM 41.8000 -87.7333 37° Northeast 100 115 59,900  Level Chicago TRACON
Sun 01:36:47 PM 41.8167 -87.7167 37° Northeast 113 130 1,500 -28,900 Descending Chicago TRACON
Sun 01:37:53 PM 41.8167 -87.6667 90° East 121 139 2,100 27,667 Climbing Chicago TRACON
Sun 01:38:53 PM 41.8167 -87.6167 90° East 114 131 59,600 560 Climbing Chicago TRACON
Sun 01:39:08 PM 41.8217 -87.6156 North 116 133 2,800 -43,714 Descending Chicago Center
Sun 01:40:10 PM 41.8197 -87.5739 94° East 113 130 3,500 581 Climbing Chicago Center
Sun 01:41:12 PM 41.8078 -87.5347 112° Southeast 112 129 4,000 581 Climbing Chicago Center
Sun 01:42:14 PM 41.7925 -87.4875 113° Southeast 114 131 4,700 484 Climbing Chicago Center
Sun 01:43:16 PM 41.7850 -87.4450 103° East 116 133 5,000 145 Climbing Chicago Center
Sun 01:44:18 PM 41.7886 -87.3914 85° East 132 152 5,000 145 Level Chicago Center
Sun 01:45:20 PM 41.7947 -87.3381 81° East 142 163 5,300 435 Climbing Chicago Center
Sun 01:46:22 PM 41.7972 -87.2933 86° East 126 145 5,900 581 Climbing Chicago Center
Sun 01:47:24 PM 41.7975 -87.2406 90° East 119 137 6,500 528 Climbing Chicago Center
Sun 01:48:27 PM 41.7978 -87.1967 89° East 118 136 7,000 432 Climbing Chicago Center
Sun 01:49:29 PM 41.7986 -87.1528 89° East 118 136 7,400 435 Climbing Chicago Center
Sun 01:50:31 PM 41.7983 -87.1083 90° East 119 137 7,900 435 Climbing Chicago Center
Sun 01:51:33 PM 41.8003 -87.0617 87° East 124 143 8,300 435 Climbing Chicago Center
Sun 01:52:35 PM 41.8033 -87.0156 85° East 124 143 8,800 629 Climbing Chicago Center
Sun 01:53:37 PM 41.8081 -86.9614 83° East 123 142 9,600 581 Climbing Chicago Center
Sun 01:54:39 PM 41.8106 -86.9150 86° East 124 143 10,000 435 Climbing Chicago Center
Sun 01:55:41 PM 41.8331 -86.8761 52° Northeast 131 151 10,500 484 Climbing Chicago Center
Sun 01:56:43 PM 41.8492 -86.8350 62° Northeast 126 145 11,000 242 Climbing Chicago Center
Sun 01:57:45 PM 41.8631 -86.7878 68° East 137 158 11,000  Level Chicago Center
Sun 01:58:47 PM 41.8844 -86.7236 66° East 158 182 11,000  Level Chicago Center
Sun 01:59:49 PM 41.9017 -86.6742 65° Northeast 160 184 11,000  Level Chicago Center
Sun 02:00:51 PM 41.9208 -86.6203 64° Northeast 160 184 11,000  Level Chicago Center
Sun 02:01:53 PM 41.9386 -86.5714 64° Northeast 149 171 11,000  Level Chicago Center
Sun 02:02:55 PM 41.9600 -86.5072 66° East 157 181 11,000  Level Chicago Center
Sun 02:03:57 PM 41.9775 -86.4519 67° East 160 184 11,000  Level Chicago Center
Sun 02:04:59 PM 41.9978 -86.3986 63° Northeast 162 186 11,000  Level Chicago Center
Sun 02:06:02 PM 42.0156 -86.3461 65° Northeast 157 181 11,000  Level Chicago Center
Sun 02:07:04 PM 42.0333 -86.2933 66° East 155 178 11,000  Level Chicago Center
Sun 02:08:06 PM 42.0494 -86.2408 68° East 154 177 11,000  Level Chicago Center
Sun 02:09:08 PM 42.0722 -86.1750 65° Northeast 159 183 11,000  Level Chicago Center
Sun 02:10:10 PM 42.0900 -86.1217 66° East 161 185 11,000  Level Chicago Center
Sun 02:11:12 PM 42.1094 -86.0667 65° Northeast 162 186 11,000  Level Chicago Center
Sun 02:12:15 PM 42.1283 -86.0114 65° Northeast 161 185 11,000  Level Chicago Center
Sun 02:13:16 PM 42.1492 -85.9500 65° Northeast 162 186 11,000  Level Chicago Center
Sun 02:14:18 PM 42.1678 -85.8967 65° Northeast 160 184 11,000  Level Chicago Center
Sun 02:15:20 PM 42.1861 -85.8431 65° Northeast 158 182 11,000  Level Chicago Center
Sun 02:16:22 PM 42.2028 -85.7900 67° East 155 178 11,000  Level Chicago Center
Sun 02:17:24 PM 42.2194 -85.7339 68° East 161 185 11,000  Level Chicago Center
Sun 02:18:27 PM 42.2433 -85.6683 64° Northeast 163 188 11,000  Level Chicago Center
Sun 02:19:29 PM 42.2614 -85.6133 66° East 162 186 11,000  Level Chicago Center
Sun 02:20:31 PM 42.2786 -85.5611 66° East 157 181 11,000  Level Chicago Center
Sun 02:21:33 PM 42.2961 -85.5061 67° East 158 182 11,000  Level Chicago Center
Sun 02:22:35 PM 42.3142 -85.4514 66° East 159 183 11,000  Level Chicago Center
Sun 02:23:37 PM 42.3322 -85.3967 66° East 160 184 11,000  Level Chicago Center
Sun 02:24:24 PM 42.3511 -85.3461 63° Northeast 160 184 11,000  Level Cleveland Center
Sun 02:25:24 PM 42.3681 -85.2911 67° East 148 170 11,000  Level Cleveland Center
Sun 02:26:24 PM 42.3825 -85.2417 68° East 148 170 11,000  Level Cleveland Center
Sun 02:26:43 PM 42.3900 -85.2231 61° Northeast 158 182 11,000  Level Chicago Center
Sun 02:27:45 PM 42.4075 -85.1689 66° East 157 181 11,000  Level Chicago Center
Sun 02:28:47 PM 42.4256 -85.1128 66° East 160 184 11,000  Level Chicago Center
Sun 02:29:49 PM 42.4478 -85.0464 66° East 162 186 11,000  Level Chicago Center
Sun 02:30:51 PM 42.4650 -84.9931 66° East 158 182 11,000  Level Chicago Center
Sun 02:31:54 PM 42.4847 -84.9389 64° Northeast 160 184 11,000  Level Chicago Center
Sun 02:32:56 PM 42.5081 -84.8844 60° Northeast 164 189 11,000 48 Level Chicago Center
Sun 02:33:58 PM 42.5308 -84.8306 60° Northeast 166 191 11,100 48 Climbing Chicago Center
Sun 02:35:00 PM 42.5531 -84.7772 60° Northeast 164 189 11,100  Level Chicago Center
Sun 02:36:02 PM 42.5792 -84.7164 60° Northeast 158 182 11,100  Level Chicago Center
Sun 02:37:04 PM 42.6008 -84.6628 61° Northeast 160 184 11,100  Level Chicago Center
Sun 02:38:06 PM 42.6219 -84.6083 62° Northeast 163 188 11,100 -75 Level Chicago Center
Sun 02:38:24 PM 42.6281 -84.5936 61° Northeast 154 177 11,000 -77 Descending Cleveland Center
Sun 02:39:24 PM 42.6506 -84.5414 60° Northeast 154 177 11,000  Level Cleveland Center
Sun 02:40:24 PM 42.6714 -84.4833 64° Northeast 154 177 11,000  Level Cleveland Center
Sun 02:41:24 PM 42.6939 -84.4311 60° Northeast 154 177 11,000  Level Cleveland Center
Sun 02:42:24 PM 42.7186 -84.3761 59° Northeast 154 177 11,000  Level Cleveland Center
Sun 02:43:24 PM 42.7347 -84.3317 64° Northeast 154 177 11,000  Level Cleveland Center
Sun 02:44:24 PM 42.7597 -84.2653 63° Northeast 154 177 11,000 -50 Level Cleveland Center
Sun 02:45:24 PM 42.7825 -84.2100 61° Northeast 154 177 10,900  Descending Cleveland Center
Sun 02:46:24 PM 42.8050 -84.1575 60° Northeast 154 177 11,000 50 Climbing Cleveland Center
Sun 02:47:24 PM 42.8253 -84.1022 63° Northeast 154 177 11,000  Level Cleveland Center
Sun 02:48:24 PM 42.8478 -84.0467 61° Northeast 154 177 11,000  Level Cleveland Center
Sun 02:49:24 PM 42.8706 -83.9886 62° Northeast 154 177 11,000  Level Cleveland Center
Sun 02:50:24 PM 42.8931 -83.9331 61° Northeast 154 177 11,000  Level Cleveland Center
Sun 02:51:24 PM 42.9156 -83.8747 62° Northeast 159 183 11,000  Level Cleveland Center
Sun 02:52:24 PM 42.9378 -83.8192 61° Northeast 159 183 11,000  Level Cleveland Center
Sun 02:53:24 PM 42.9625 -83.7608 60° Northeast 159 183 11,000 50 Level Cleveland Center
Sun 02:54:24 PM 42.9786 -83.7019 69° East 159 183 11,100  Climbing Cleveland Center
Sun 02:55:24 PM 42.9947 -83.6433 69° East 159 183 11,000  Descending Cleveland Center
Sun 02:57:24 PM 43.0292 -83.5256 68° East 159 183 11,100 33 Climbing Cleveland Center
Sun 02:58:24 PM 43.0431 -83.4667 72° East 159 183 11,100  Level Cleveland Center
Sun 02:59:24 PM 43.0592 -83.4078 69° East 164 189 11,100  Level Cleveland Center
Sun 03:01:24 PM 43.0914 -83.2842 70° East 164 189 11,100 -33 Level Cleveland Center
Sun 03:02:24 PM 43.1092 -83.2281 67° East 164 189 11,000  Descending Cleveland Center
Sun 03:03:24 PM 43.1253 -83.1661 70° East 164 189 11,100 50 Climbing Cleveland Center
Sun 03:04:24 PM 43.1411 -83.1069 70° East 164 189 11,100 -50 Level Cleveland Center
Sun 03:05:24 PM 43.1572 -83.0450 70° East 164 189 11,000 -50 Descending Cleveland Center
Sun 03:06:24 PM 43.1731 -82.9831 71° East 164 189 11,000 50 Level Cleveland Center
Sun 03:07:24 PM 43.1928 -82.9267 64° Northeast 164 189 11,100 50 Climbing Cleveland Center
Sun 03:08:24 PM 43.2047 -82.8617 76° East 171 197 11,100  Level Cleveland Center
Sun 03:10:19 PM 43.2167 -82.7167 84° East 180 207 11,100  Level Toronto Center
Sun 03:11:24 PM 43.2581 -82.6811 32° Northeast 164 189 11,100  Level Cleveland Center
Sun 03:12:24 PM 43.2739 -82.6189 71° East 164 189 11,100  Level Cleveland Center
Sun 03:13:24 PM 43.2894 -82.5567 71° East 164 189 11,100 -50 Level Cleveland Center
Sun 03:14:24 PM 43.3072 -82.4947 68° East 164 189 11,000 -50 Descending Cleveland Center
Sun 03:15:24 PM 43.3228 -82.4353 70° East 164 189 11,000  Level Cleveland Center
Sun 03:16:24 PM 43.3383 -82.3756 70° East 164 189 11,000  Level Cleveland Center
Sun 03:17:24 PM 43.3558 -82.3133 69° East 169 194 11,000 52 Level Cleveland Center
Sun 03:18:19 PM 43.3667 -82.2500 77° East 170 196 11,100 52 Climbing Toronto Center
Sun 03:19:19 PM 43.3667 -82.1833 90° East 170 196 11,100  Level Toronto Center
Sun 03:20:19 PM 43.3833 -82.1167 71° East 170 196 11,100 -50 Level Toronto Center
Sun 03:21:19 PM 43.4000 -82.0500 71° East 170 196 11,000 -50 Descending Toronto Center
Sun 03:22:19 PM 43.4167 -82.0000 65° Northeast 170 196 11,000  Level Toronto Center
Sun 03:23:19 PM 43.4333 -81.9333 71° East 170 196 11,000  Level Toronto Center
Sun 03:24:19 PM 43.4667 -81.8667 55° Northeast 170 196 11,000  Level Toronto Center
Sun 03:25:19 PM 43.4833 -81.8167 65° Northeast 170 196 11,000  Level Toronto Center
Sun 03:26:19 PM 43.4833 -81.7500 90° East 160 184 11,000  Level Toronto Center
Sun 03:27:19 PM 43.5000 -81.7000 65° Northeast 170 196 11,000  Level Toronto Center
Sun 03:28:19 PM 43.5167 -81.6333 71° East 170 196 11,000  Level Toronto Center
Sun 03:29:19 PM 43.5333 -81.5667 71° East 170 196 11,000  Level Toronto Center
Sun 03:30:19 PM 43.5500 -81.5167 65° Northeast 170 196 11,000  Level Toronto Center
Sun 03:31:19 PM 43.5667 -81.4500 71° East 170 196 11,000  Level Toronto Center
Sun 03:33:19 PM 43.5833 -81.3167 80° East 170 196 11,000  Level Toronto Center
Sun 03:34:19 PM 43.6000 -81.2667 65° Northeast 170 196 11,000  Level Toronto Center
Sun 03:36:19 PM 43.6333 -81.1333 71° East 170 196 11,000  Level Toronto Center
Sun 03:37:19 PM 43.6500 -81.0833 65° Northeast 170 196 11,000 -400 Level Toronto Center
Sun 03:38:19 PM 43.6667 -81.0167 71° East 190 219 10,200 -700 Descending Toronto Center
Sun 03:39:19 PM 43.6833 -80.9500 71° East 200 230 9,600 -533 Descending Toronto Center
Sun 03:41:19 PM 43.7333 -80.7833 67° East 190 219 8,600 -500 Descending Toronto Center
Sun 03:42:19 PM 43.7500 -80.7167 71° East 190 219 8,100 -650 Descending Toronto Center
Sun 03:43:19 PM 43.7667 -80.6500 71° East 190 219 7,300 -700 Descending Toronto Center
Sun 03:44:19 PM 43.7833 -80.5833 71° East 190 219 6,700 -600 Descending Toronto Center
Sun 03:45:19 PM 43.8000 -80.5167 71° East 190 219 6,100 -550 Descending Toronto Center
Sun 03:46:19 PM 43.8167 -80.4333 74° East 190 219 5,600 -550 Descending Toronto Center
Sun 03:47:19 PM 43.8333 -80.3667 71° East 190 219 5,000 -300 Descending Toronto Center
Sun 03:48:19 PM 43.8500 -80.3333 55° Northeast 180 207 5,000  Level Toronto Center
Sun 03:49:19 PM 43.8667 -80.2500 74° East 160 184 5,000  Level Toronto Center
Sun 03:50:19 PM 43.8667 -80.1833 90° East 160 184 5,000 -300 Level Toronto Center
Sun 03:51:19 PM 43.8833 -80.1500 55° Northeast 170 196 4,400 -450 Descending Toronto Center
Sun 03:52:19 PM 43.9000 -80.0667 74° East 180 207 4,100 -200 Descending Toronto Center
Sun 03:53:19 PM 43.9000 -80.0000 90° East 170 196 4,000 -50 Descending Toronto Center
Sun 03:54:19 PM 43.9000 -79.9500 90° East 160 184 4,000 50 Level Toronto Center
Sun 03:55:19 PM 43.9167 -79.8833 71° East 150 173 4,100  Climbing Toronto Center
Sun 03:56:19 PM 43.9167 -79.8333 90° East 150 173 4,000 -50 Descending Toronto Center
Sun 03:57:19 PM 43.9167 -79.7667 90° East 150 173 4,000 -300 Level Toronto Center
Sun 03:58:19 PM 43.9167 -79.7000 90° East 180 207 3,400 -600 Descending Toronto Center
Sun 03:59:19 PM 43.9167 -79.6333 90° East 180 207 2,800 -150 Descending Toronto Center
Sun 04:00:19 PM 43.9333 -79.5667 71° East 160 184 3,100 -50 Climbing Toronto Center
Sun 04:01:19 PM 43.9333 -79.5167 90° East 160 184 2,700 -500 Descending Toronto Center
Sun 04:02:19 PM 43.9167 -79.4500 109° East 170 196 2,100 -300 Descending Toronto Center
Sun 04:03:19 PM 43.9000 -79.4000 115° Southeast 130 150 2,100 -350 Level Toronto Center
Sun 04:04:19 PM 43.8833 -79.3833 144° Southeast 120 138 1,400 -550 Descending Toronto Center
Sun 04:05:19 PM 43.8500 -79.3500 144° Southeast 110 127 1,000 -400 Descending Toronto Center

Login

Don't have an account? Register now (free) for customized features, flight alerts, and more!